Gora Dashtoy - Monthly weather history

Lat: 37.67 | Lon: 58.33 | Forecast for altitude: 2207m | Map

Gora Dashtoy, The weather in the past

Weather station: ASHGABAT KESHI at 35.0km of Gora Dashtoy
Station location: Lat 37.987 Lon 58.361 Altitude 211m
Date Daily minimum temperature Daily maximum temperature Maximum steady wind Maximum wind gust Total daily precipitation Snow depth Pressure Icon Description
11/1/2017 16°C 27°C 32 Km/h N/A 0mm N/A 1011.8mb weather events not reported
11/2/2017 14°C 23°C 24 Km/h N/A 0mm N/A 1019.0mb weather events not reported
11/3/2017 13°C 19°C 22 Km/h N/A 0mm N/A 1022.1mb weather events not reported
11/4/2017 11°C 22°C 24 Km/h N/A 0mm N/A 1019.6mb weather events not reported
11/5/2017 12°C 23°C 28 Km/h N/A 0mm N/A 1021.9mb weather events not reported
11/6/2017 10°C 23°C 18 Km/h N/A 0mm N/A 1024.8mb weather events not reported
11/7/2017 10°C 23°C 22 Km/h N/A 0mm N/A 1024.3mb weather events not reported
11/8/2017 8°C 22°C 9 Km/h N/A 0mm N/A 1022.6mb weather events not reported
11/9/2017 12°C 23°C 22 Km/h N/A 0mm N/A 1021.2mb weather events not reported
11/10/2017 9°C 20°C 32 Km/h N/A 0mm N/A 1020.6mb weather events not reported
11/11/2017 9°C 21°C 15 Km/h N/A 0mm N/A 1018.5mb weather events not reported
11/12/2017 8°C 21°C 18 Km/h N/A 0mm N/A 1018.1mb Rain
11/13/2017 12°C 17°C 11 Km/h N/A N/A N/A 1021.5mb Rain
11/14/2017 7°C 15°C 25 Km/h N/A 0mm N/A 1024.2mb weather events not reported
11/15/2017 5°C 17°C 13 Km/h N/A 0mm N/A 1023.8mb weather events not reported
11/16/2017 5°C 19°C 15 Km/h N/A 0mm N/A 1024.6mb weather events not reported
11/17/2017 5°C 20°C 18 Km/h N/A 0mm N/A 1024.9mb weather events not reported
11/18/2017 7°C 18°C N/A 37 Km/h 0mm N/A 1027.3mb weather events not reported
11/19/2017 5°C 19°C 25 Km/h N/A 0mm N/A 1023.2mb weather events not reported
11/20/2017 3°C 19°C N/A N/A 0mm N/A 1017.9mb weather events not reported
11/21/2017 6°C 25°C 15 Km/h N/A 0mm N/A 1011.6mb weather events not reported
11/22/2017 10°C 23°C 13 Km/h 29 Km/h 0mm N/A 1005.5mb weather events not reported
11/23/2017 10°C 16°C 28 Km/h N/A 0mm N/A 1011.7mb Rain
Live Satellite Image
Weather maps
Gora Dashtoy: Nearby areas

Local Time: Gora Dashtoy, Turkmenistan

25 Nov 2017 | 08:45